LICR

Reggio Calabria Airport

Reggio Calabria, Italy
TAF LICR 211700Z 2118/2218 20008KT CAVOK BECMG 2206/2208 34010KT
Issued Valid From Valid To
Jul-21 @ 17:00 UTC
(6 hours ago)
Jul-21 @ 18:00 UTC
(5 hours ago)
Jul-22 @ 18:00 UTC
(in 19 hours)
Jul-21 @ 18:00 to Jul-22 @ 06:00
TAF LICR 211700Z 2118/2218 20008KT CAVOK
Wind Visibility Clouds Conditions
200° at 8 knots 10,000+ meters
  • No significant clouds
Becoming Jul-22 @ 06:00 to Jul-22 @ 18:00
BECMG 2206/2208 34010KT
Wind Visibility Clouds Conditions
340° at 10 knots 10,000+ meters
  • No significant clouds
TAF LICR 211700Z 2118/2218 20008KT CAVOK BECMG 2206/2208 34010KT
Issued Jul-21 @ 17:00 UTC
(6 hours ago)
Valid From Jul-21 @ 18:00 UTC
(5 hours ago)
Valid To Jul-22 @ 18:00 UTC
(in 19 hours)
Jul-21 @ 18:00 - Jul-22 @ 06:00
Wind Visibility
200° at 8 knots 10,000+ meters
Clouds
  • No significant clouds
Conditions
Becoming Jul-22 @ 06:00 - Jul-22 @ 18:00
Wind Visibility
340° at 10 knots 10,000+ meters
Clouds
  • No significant clouds
Conditions